»·PEaware :: N774DL KBFL-O15

N774DL :: KBFL-O15

FLIGHT INFORMATION

Flight Status: Arrived
Operator: Privately registered:
United States
More flights under this callsign
Pilot: Jamie L. (18851)
Aircraft: DIAMOND DA-42 TWINSTAR
(DA42)
More flights by this aircraft type
Origin: KBFL Meadows
United States
Destination: O15 Turlock Mun
United States
More flights between these airports :: More routes between these airports
Route: EHF HYP
File this flight plan on PilotEdge
Remarks:
Altitude:
(Current/Filed)
5,000ft
Speed:
(Current/Filed)
160kts
Departed: 27-Apr-18 10:58 AM
Arrived: 27-Apr-18 12:00 PM
Distance/Time
Traveled:
147nm/1:02
Distance/Time
To Go:
Arrived

Flight Plot

Page will automatically refresh every two minutes.

Flight plan parsing failed; only flown route is shown


Map Options




Map Legend


Flown Route
Filed Route
Departure Airport
Arrival Airport
Navaid (VOR, NDB)
Fix

Horizontal Profiles

Position Reports

Time Latitude Longitude Heading Altitude Ground
Speed
27-Apr-18 10:36 35.433522 -119.044841 311 510ft 0kts
27-Apr-18 10:37 35.433522 -119.044841 311 510ft 0kts
27-Apr-18 10:38 35.433522 -119.044841 311 510ft 0kts
27-Apr-18 10:39 35.433522 -119.044841 311 510ft 0kts
27-Apr-18 10:40 35.433522 -119.044841 311 510ft 0kts
27-Apr-18 10:41 35.433522 -119.044841 311 510ft 0kts
27-Apr-18 10:42 35.433522 -119.044841 311 510ft 0kts
27-Apr-18 10:43 35.433522 -119.044841 311 510ft 0kts
27-Apr-18 10:44 35.433522 -119.044841 311 510ft 0kts
27-Apr-18 10:45 35.433522 -119.044841 311 510ft 0kts
27-Apr-18 10:46 35.433522 -119.044841 311 510ft 0kts
27-Apr-18 10:47 35.433522 -119.044841 311 510ft 0kts
27-Apr-18 10:48 35.433522 -119.044841 311 510ft 0kts
27-Apr-18 10:49 35.433647 -119.045125 258 510ft 6kts
27-Apr-18 10:50 35.433697 -119.047855 317 510ft 9kts
27-Apr-18 10:51 35.434497 -119.051206 257 510ft 13kts
27-Apr-18 10:52 35.431473 -119.050918 135 510ft 15kts
27-Apr-18 10:53 35.429066 -119.048049 135 510ft 6kts
27-Apr-18 10:54 35.427325 -119.045948 132 510ft 17kts
27-Apr-18 10:55 35.425980 -119.045713 228 510ft 0kts
27-Apr-18 10:56 35.425879 -119.045854 228 510ft 5kts
27-Apr-18 10:57 35.433803 -119.057405 316 719ft 81kts
27-Apr-18 10:58 35.448345 -119.079189 307 1671ft 81kts
27-Apr-18 10:59 35.463020 -119.100520 326 2592ft 87kts
27-Apr-18 11:00 35.487839 -119.104793 317 3462ft 94kts
27-Apr-18 11:01 35.509882 -119.119033 318 4477ft 87kts
27-Apr-18 11:02 35.532488 -119.135474 325 5060ft 116kts
27-Apr-18 11:03 35.565318 -119.156317 337 5004ft 141kts
27-Apr-18 11:04 35.599332 -119.178687 329 4999ft 144kts
27-Apr-18 11:05 35.635577 -119.200254 331 4997ft 144kts
27-Apr-18 11:06 35.671533 -119.221853 326 4992ft 143kts
27-Apr-18 11:07 35.706879 -119.244630 329 4992ft 144kts
27-Apr-18 11:08 35.741970 -119.268343 325 4990ft 143kts
27-Apr-18 11:09 35.776641 -119.292787 325 5019ft 145kts
27-Apr-18 11:10 35.813726 -119.320016 325 4998ft 156kts
27-Apr-18 11:11 35.851196 -119.347818 325 5004ft 154kts
27-Apr-18 11:12 35.888106 -119.375708 323 5005ft 153kts
27-Apr-18 11:13 35.924316 -119.404245 324 4997ft 151kts
27-Apr-18 11:14 35.960055 -119.430781 328 5000ft 148kts
27-Apr-18 11:15 35.995154 -119.456573 326 4999ft 146kts
27-Apr-18 11:16 36.028376 -119.485463 320 5001ft 146kts
27-Apr-18 11:17 36.062609 -119.513543 323 5002ft 147kts
27-Apr-18 11:18 36.097460 -119.540733 325 5003ft 148kts
27-Apr-18 11:19 36.132798 -119.567056 324 5024ft 153kts
27-Apr-18 11:20 36.170156 -119.595846 326 5018ft 158kts
27-Apr-18 11:21 36.209246 -119.622330 326 5012ft 156kts
27-Apr-18 11:22 36.246471 -119.649376 327 5013ft 153kts
27-Apr-18 11:23 36.283979 -119.674464 330 5007ft 151kts
27-Apr-18 11:24 36.315527 -119.693803 328 5007ft 155kts
27-Apr-18 11:25 36.352485 -119.721146 324 5025ft 155kts
27-Apr-18 11:26 36.390522 -119.749031 327 5020ft 158kts
27-Apr-18 11:27 36.428967 -119.777104 324 5008ft 155kts
27-Apr-18 11:28 36.465348 -119.805341 325 5021ft 156kts
27-Apr-18 11:29 36.503716 -119.833037 326 5001ft 154kts
27-Apr-18 11:30 36.539154 -119.860666 322 5008ft 149kts
27-Apr-18 11:31 36.573057 -119.890064 326 5002ft 149kts
27-Apr-18 11:32 36.596911 -119.911693 316 5020ft 147kts
27-Apr-18 11:33 36.631646 -119.940188 323 5011ft 150kts
27-Apr-18 11:34 36.666810 -119.969605 323 5009ft 160kts
27-Apr-18 11:35 36.703745 -120.001574 324 5012ft 159kts
27-Apr-18 11:36 36.741920 -120.029719 326 5019ft 159kts
27-Apr-18 11:37 36.781257 -120.056757 328 5005ft 156kts
27-Apr-18 11:38 36.819314 -120.081762 326 5032ft 157kts
27-Apr-18 11:39 36.857853 -120.110183 325 5012ft 156kts
27-Apr-18 11:40 36.893450 -120.139229 322 5018ft 151kts
27-Apr-18 11:41 36.927551 -120.170120 324 5023ft 151kts
27-Apr-18 11:42 36.964682 -120.195388 330 5020ft 152kts
27-Apr-18 11:43 37.002421 -120.220006 325 5022ft 152kts
27-Apr-18 11:44 37.040489 -120.249205 327 5021ft 165kts
27-Apr-18 11:45 37.078406 -120.280253 320 5031ft 160kts
27-Apr-18 11:46 37.115725 -120.311489 323 5031ft 159kts
27-Apr-18 11:47 37.152976 -120.341776 323 5036ft 159kts
27-Apr-18 11:48 37.184451 -120.367144 324 5029ft 159kts
27-Apr-18 11:49 37.222016 -120.396752 315 5042ft 156kts
27-Apr-18 11:50 37.254085 -120.436512 310 4701ft 163kts
27-Apr-18 11:51 37.287538 -120.475631 316 3952ft 161kts
27-Apr-18 11:52 37.320951 -120.512854 312 3203ft 158kts
27-Apr-18 11:53 37.351971 -120.550909 316 2606ft 151kts
27-Apr-18 11:54 37.384371 -120.582383 324 2106ft 144kts
27-Apr-18 11:55 37.414722 -120.610386 317 2016ft 126kts
27-Apr-18 11:56 37.441016 -120.640470 312 1764ft 130kts
27-Apr-18 11:57 37.463770 -120.668201 317 916ft 100kts
27-Apr-18 11:58 37.481556 -120.689799 320 297ft 83kts
27-Apr-18 11:59 37.490053 -120.700032 316 162ft 7kts
27-Apr-18 12:00 37.489359 -120.699942 140 162ft 6kts
27-Apr-18 12:01 37.487834 -120.699637 227 162ft 6kts
27-Apr-18 12:02 37.487984 -120.699356 45 162ft 0kts
27-Apr-18 12:03 37.487984 -120.699356 45 162ft 0kts
27-Apr-18 12:04 37.487984 -120.699356 45 162ft 0kts
27-Apr-18 12:05 37.487984 -120.699356 45 162ft 0kts

Navigation Log

Ident Type
Flight plan parsing failed, navigation log unavailable